createdAt,value
2018-06-19T00:00:01.755Z,0.00
2018-06-19T00:01:01.776Z,0.00
2018-06-19T00:02:01.789Z,0.00
2018-06-19T00:03:01.807Z,0.00
2018-06-19T00:04:01.824Z,0.00
2018-06-19T00:05:01.845Z,0.00
2018-06-19T00:06:01.863Z,0.00
2018-06-19T00:07:01.880Z,0.00
2018-06-19T00:08:01.897Z,0.00
2018-06-19T00:09:01.921Z,0.00
2018-06-19T00:10:01.934Z,0.00
2018-06-19T00:11:01.954Z,0.00
2018-06-19T00:12:01.969Z,0.00
2018-06-19T00:13:01.987Z,0.00
2018-06-19T00:14:02.006Z,0.00
2018-06-19T00:15:02.022Z,0.00
2018-06-19T00:16:02.041Z,0.00
2018-06-19T00:17:02.060Z,0.00
2018-06-19T00:18:02.080Z,0.00
2018-06-19T00:19:02.095Z,0.00
2018-06-19T00:20:02.112Z,0.00
2018-06-19T00:21:02.134Z,0.00
2018-06-19T00:22:02.147Z,0.00
2018-06-19T00:23:02.168Z,0.00
2018-06-19T00:24:02.184Z,0.00
2018-06-19T00:25:02.204Z,0.00
2018-06-19T00:26:02.220Z,0.00
2018-06-19T00:27:02.243Z,0.00
2018-06-19T00:28:02.258Z,0.00
2018-06-19T00:29:02.275Z,0.00
2018-06-19T00:30:02.296Z,0.00
2018-06-19T00:31:02.309Z,0.00
2018-06-19T00:32:02.327Z,0.00
2018-06-19T00:33:02.346Z,0.00
2018-06-19T00:34:02.365Z,0.00
2018-06-19T00:35:02.381Z,0.00
2018-06-19T00:36:02.398Z,0.00
2018-06-19T00:37:02.416Z,0.00
2018-06-19T00:38:02.434Z,0.00
2018-06-19T00:39:02.452Z,0.00
2018-06-19T00:40:02.472Z,0.00
2018-06-19T00:41:02.492Z,0.00
2018-06-19T00:42:02.507Z,0.00
2018-06-19T00:43:02.529Z,0.00
2018-06-19T00:44:02.541Z,0.00
2018-06-19T00:45:02.558Z,0.00
2018-06-19T00:46:02.576Z,0.00
2018-06-19T00:47:02.593Z,0.00
2018-06-19T00:48:02.614Z,0.00
2018-06-19T00:49:02.632Z,0.00
2018-06-19T00:50:02.649Z,0.00
2018-06-19T00:51:02.666Z,0.00
2018-06-19T00:52:02.687Z,0.00
2018-06-19T00:53:02.702Z,0.00
2018-06-19T00:54:02.721Z,0.00
2018-06-19T00:55:02.744Z,0.00
2018-06-19T00:56:02.756Z,0.00
2018-06-19T00:57:02.776Z,0.00
2018-06-19T00:58:02.789Z,0.00
2018-06-19T00:59:02.806Z,0.00
2018-06-19T01:00:02.825Z,0.00
2018-06-19T01:01:02.844Z,0.00
2018-06-19T01:02:02.862Z,0.00
2018-06-19T01:03:02.881Z,0.00
2018-06-19T01:04:02.896Z,0.00
2018-06-19T01:05:02.914Z,0.00
2018-06-19T01:06:02.937Z,0.00
2018-06-19T01:07:02.950Z,0.00
2018-06-19T01:08:02.967Z,0.00
2018-06-19T01:09:02.987Z,0.00
2018-06-19T01:10:03.004Z,0.00
2018-06-19T01:11:03.021Z,0.00
2018-06-19T01:12:03.037Z,0.00
2018-06-19T01:13:03.057Z,0.00
2018-06-19T01:14:03.073Z,0.00
2018-06-19T01:15:03.091Z,0.00
2018-06-19T01:16:03.110Z,0.00
2018-06-19T01:17:03.128Z,0.00
2018-06-19T01:18:03.145Z,0.00
2018-06-19T01:19:03.161Z,0.00
2018-06-19T01:20:03.179Z,0.00
2018-06-19T01:21:03.198Z,0.00
2018-06-19T01:22:03.217Z,0.00
2018-06-19T01:23:03.234Z,0.00
2018-06-19T01:24:03.250Z,0.00
2018-06-19T01:25:03.270Z,0.00
2018-06-19T01:26:03.287Z,0.00
2018-06-19T01:27:03.304Z,0.00
2018-06-19T01:28:03.321Z,0.00
2018-06-19T01:29:03.339Z,0.00
2018-06-19T01:30:03.357Z,0.00
2018-06-19T01:31:03.374Z,0.00
2018-06-19T01:32:03.392Z,0.00
2018-06-19T01:33:03.409Z,0.00
2018-06-19T01:34:03.428Z,0.00
2018-06-19T01:35:03.445Z,0.00
2018-06-19T01:36:03.464Z,0.00
2018-06-19T01:37:03.479Z,0.00
2018-06-19T01:38:03.509Z,0.00
2018-06-19T01:39:03.517Z,0.00
2018-06-19T01:40:03.534Z,0.00
2018-06-19T01:41:03.553Z,0.00
2018-06-19T01:42:03.572Z,0.00
2018-06-19T01:43:03.584Z,0.00
2018-06-19T01:44:03.604Z,0.00
2018-06-19T01:45:03.622Z,0.00
2018-06-19T01:46:03.639Z,0.00
2018-06-19T01:47:03.655Z,0.00
2018-06-19T01:48:03.673Z,0.00
2018-06-19T01:49:03.692Z,0.00
2018-06-19T01:50:03.707Z,0.00
2018-06-19T01:51:03.726Z,0.00
2018-06-19T01:52:03.741Z,0.00
2018-06-19T01:53:03.761Z,0.00
2018-06-19T01:54:03.777Z,0.00
2018-06-19T01:55:03.794Z,0.00
2018-06-19T01:56:03.815Z,0.00
2018-06-19T01:57:03.828Z,0.00
2018-06-19T01:58:03.849Z,0.00
2018-06-19T01:59:03.865Z,0.00
2018-06-19T02:00:03.884Z,0.00
2018-06-19T02:01:03.900Z,0.00
2018-06-19T02:02:03.918Z,0.00
2018-06-19T02:03:03.932Z,0.00
2018-06-19T02:04:03.953Z,0.00
2018-06-19T02:05:03.966Z,0.00
2018-06-19T02:06:03.987Z,0.00
2018-06-19T02:07:04.004Z,0.00
2018-06-19T02:08:04.019Z,0.00
2018-06-19T02:09:04.035Z,0.00
2018-06-19T02:10:04.057Z,0.00
2018-06-19T02:11:04.070Z,0.00
2018-06-19T02:12:04.089Z,0.00
2018-06-19T02:13:04.105Z,0.00
2018-06-19T02:14:04.123Z,0.00
2018-06-19T02:15:04.138Z,0.00
2018-06-19T02:16:04.158Z,0.00
2018-06-19T02:17:04.174Z,0.00
2018-06-19T02:18:04.190Z,0.00
2018-06-19T02:19:04.206Z,0.00
2018-06-19T02:20:04.224Z,0.00
2018-06-19T02:21:04.241Z,0.00
2018-06-19T02:22:04.268Z,0.00
2018-06-19T02:23:04.274Z,0.00
2018-06-19T02:24:04.292Z,0.00
2018-06-19T02:25:04.309Z,0.00
2018-06-19T02:26:04.328Z,0.00
2018-06-19T02:27:04.342Z,0.00
2018-06-19T02:28:04.361Z,0.00
2018-06-19T02:29:04.380Z,0.00
2018-06-19T02:30:04.397Z,0.00
2018-06-19T02:31:04.417Z,0.00
2018-06-19T02:32:04.431Z,0.00
2018-06-19T02:33:04.448Z,0.00
2018-06-19T02:34:04.464Z,0.00
2018-06-19T02:35:04.485Z,0.00
2018-06-19T02:36:04.499Z,0.00
2018-06-19T02:37:04.517Z,0.00
2018-06-19T02:38:04.534Z,0.00
2018-06-19T02:39:04.550Z,0.00
2018-06-19T02:40:04.568Z,0.00
2018-06-19T02:41:04.586Z,0.00
2018-06-19T02:42:04.600Z,0.00
2018-06-19T02:43:04.616Z,0.00
2018-06-19T02:44:04.632Z,0.00
2018-06-19T02:45:04.652Z,0.00
2018-06-19T02:46:04.669Z,0.00
2018-06-19T02:47:04.686Z,0.00
2018-06-19T02:48:04.704Z,0.00
2018-06-19T02:49:04.718Z,0.00
2018-06-19T02:50:04.739Z,0.00
2018-06-19T02:51:04.764Z,0.00
2018-06-19T02:52:04.767Z,0.00
2018-06-19T02:53:04.787Z,0.00
2018-06-19T02:54:04.806Z,0.00
2018-06-19T02:55:04.819Z,0.00
2018-06-19T02:56:04.837Z,0.00
2018-06-19T02:57:04.853Z,0.00
2018-06-19T02:58:04.869Z,0.00
2018-06-19T02:59:04.885Z,0.00
2018-06-19T03:00:04.906Z,0.00
2018-06-19T03:01:04.921Z,0.00
2018-06-19T03:02:04.936Z,0.00
2018-06-19T03:03:04.958Z,0.00
2018-06-19T03:04:04.971Z,0.00
2018-06-19T03:05:04.991Z,0.00
2018-06-19T03:06:05.005Z,0.00
2018-06-19T03:07:05.018Z,0.00
2018-06-19T03:08:05.035Z,0.00
2018-06-19T03:09:05.055Z,0.00
2018-06-19T03:10:05.071Z,0.00
2018-06-19T03:11:05.085Z,0.00
2018-06-19T03:12:05.107Z,0.00
2018-06-19T03:13:05.120Z,0.00
2018-06-19T03:14:05.136Z,0.00
2018-06-19T03:15:05.152Z,0.00
2018-06-19T03:16:05.170Z,0.00
2018-06-19T03:17:05.185Z,0.00
2018-06-19T03:18:05.205Z,4.00
2018-06-19T03:19:05.219Z,0.00
2018-06-19T03:20:05.237Z,0.00
2018-06-19T03:21:05.254Z,0.00
2018-06-19T03:22:05.271Z,0.00
2018-06-19T03:23:05.288Z,0.00
2018-06-19T03:24:05.302Z,0.00
2018-06-19T03:25:05.320Z,0.00
2018-06-19T03:26:05.340Z,4.00
2018-06-19T03:27:05.350Z,4.00
2018-06-19T03:28:05.370Z,0.00
2018-06-19T03:29:05.384Z,0.00
2018-06-19T03:30:05.411Z,4.00
2018-06-19T03:31:05.426Z,4.00
2018-06-19T03:32:05.437Z,4.00
2018-06-19T03:33:05.455Z,4.00
2018-06-19T03:34:05.472Z,4.00
2018-06-19T03:35:05.485Z,4.00
2018-06-19T03:36:05.506Z,4.00
2018-06-19T03:37:05.523Z,4.00
2018-06-19T03:38:05.541Z,4.00
2018-06-19T03:39:05.556Z,4.00
2018-06-19T03:40:05.570Z,4.00
2018-06-19T03:41:05.587Z,4.00
2018-06-19T03:42:05.606Z,8.00
2018-06-19T03:43:05.621Z,8.00
2018-06-19T03:44:05.637Z,8.00
2018-06-19T03:45:05.653Z,8.00
2018-06-19T03:46:05.678Z,8.00
2018-06-19T03:47:05.690Z,8.00
2018-06-19T03:48:05.708Z,8.00
2018-06-19T03:49:05.723Z,8.00
2018-06-19T03:50:05.738Z,12.00
2018-06-19T03:51:05.754Z,12.00
2018-06-19T03:52:05.771Z,12.00
2018-06-19T03:53:05.794Z,12.00
2018-06-19T03:54:05.806Z,12.00
2018-06-19T03:55:05.820Z,16.00
2018-06-19T03:56:05.838Z,16.00
2018-06-19T03:57:05.860Z,16.00
2018-06-19T03:58:05.873Z,16.00
2018-06-19T03:59:05.889Z,16.00
2018-06-19T04:00:05.906Z,20.00
2018-06-19T04:01:05.923Z,20.00
2018-06-19T04:02:05.940Z,20.00
2018-06-19T04:03:05.957Z,20.00
2018-06-19T04:04:05.972Z,20.00
2018-06-19T04:05:05.990Z,20.00
2018-06-19T04:06:06.008Z,20.00
2018-06-19T04:07:06.026Z,24.00
2018-06-19T04:08:06.041Z,24.00
2018-06-19T04:09:06.058Z,24.00
2018-06-19T04:10:06.075Z,24.00
2018-06-19T04:11:06.092Z,28.00
2018-06-19T04:12:06.108Z,28.00
2018-06-19T04:13:06.125Z,28.00
2018-06-19T04:14:06.150Z,28.00
2018-06-19T04:15:06.159Z,28.00
2018-06-19T04:16:06.176Z,28.00
2018-06-19T04:17:06.249Z,28.00
2018-06-19T04:18:06.209Z,28.00
2018-06-19T04:19:06.229Z,28.00
2018-06-19T04:20:06.243Z,32.00
2018-06-19T04:21:06.259Z,32.00
2018-06-19T04:22:06.277Z,32.00
2018-06-19T04:23:06.294Z,32.00
2018-06-19T04:24:06.307Z,32.00
2018-06-19T04:25:06.325Z,32.00
2018-06-19T04:26:06.340Z,32.00
2018-06-19T04:27:06.358Z,32.00
2018-06-19T04:28:06.377Z,32.00
2018-06-19T04:29:06.391Z,36.00
2018-06-19T04:30:06.411Z,36.00
2018-06-19T04:31:06.425Z,36.00
2018-06-19T04:32:06.443Z,36.00
2018-06-19T04:33:06.459Z,36.00
2018-06-19T04:34:06.476Z,36.00
2018-06-19T04:35:06.492Z,40.00
2018-06-19T04:36:06.508Z,40.00
2018-06-19T04:37:06.528Z,40.00
2018-06-19T04:38:06.541Z,40.00
2018-06-19T04:39:06.561Z,40.00
2018-06-19T04:40:06.574Z,40.00
2018-06-19T04:41:06.591Z,40.00
2018-06-19T04:42:06.669Z,40.00
2018-06-19T04:43:06.625Z,40.00
2018-06-19T04:44:06.641Z,44.00
2018-06-19T04:45:06.657Z,44.00
2018-06-19T04:46:06.676Z,40.00
2018-06-19T04:47:06.691Z,40.00
2018-06-19T04:48:06.707Z,40.00
2018-06-19T04:49:06.727Z,44.00
2018-06-19T04:50:06.742Z,44.00
2018-06-19T04:51:06.757Z,44.00
2018-06-19T04:52:06.778Z,44.00
2018-06-19T04:53:06.790Z,44.00
2018-06-19T04:54:06.809Z,48.00
2018-06-19T04:55:06.826Z,48.00
2018-06-19T04:56:06.842Z,48.00
2018-06-19T04:57:06.859Z,48.00
2018-06-19T04:58:06.875Z,48.00
2018-06-19T04:59:06.891Z,48.00
2018-06-19T05:00:06.911Z,48.00
2018-06-19T05:01:06.930Z,48.00
2018-06-19T05:02:06.942Z,48.00
2018-06-19T05:03:06.958Z,48.00
2018-06-19T05:04:06.976Z,48.00
2018-06-19T05:05:06.993Z,48.00
2018-06-19T05:06:07.008Z,48.00
2018-06-19T05:07:07.030Z,48.00
2018-06-19T05:08:07.042Z,48.00
2018-06-19T05:09:07.059Z,48.00
2018-06-19T05:10:07.115Z,48.00
2018-06-19T05:11:07.093Z,52.00
2018-06-19T05:12:07.109Z,52.00
2018-06-19T05:13:07.129Z,52.00
2018-06-19T05:14:07.143Z,52.00
2018-06-19T05:15:07.159Z,52.00
2018-06-19T05:16:07.176Z,52.00
2018-06-19T05:17:07.191Z,52.00
2018-06-19T05:18:07.209Z,52.00
2018-06-19T05:19:07.232Z,52.00
2018-06-19T05:20:07.268Z,56.00
2018-06-19T05:21:07.259Z,56.00
2018-06-19T05:22:07.274Z,52.00
2018-06-19T05:23:07.290Z,52.00
2018-06-19T05:24:07.309Z,56.00
2018-06-19T05:25:07.324Z,56.00
2018-06-19T05:26:07.344Z,60.00
2018-06-19T05:27:07.356Z,60.00
2018-06-19T05:28:07.373Z,60.00
2018-06-19T05:29:07.388Z,64.00
2018-06-19T05:30:07.411Z,64.00
2018-06-19T05:31:07.423Z,64.00
2018-06-19T05:32:07.439Z,68.00
2018-06-19T05:33:07.458Z,64.00
2018-06-19T05:34:07.476Z,68.00
2018-06-19T05:35:07.532Z,72.00
2018-06-19T05:36:07.505Z,72.00
2018-06-19T05:37:07.528Z,68.00
2018-06-19T05:38:07.540Z,72.00
2018-06-19T05:39:07.558Z,72.00
2018-06-19T05:40:07.576Z,72.00
2018-06-19T05:41:07.591Z,72.00
2018-06-19T05:42:07.608Z,72.00
2018-06-19T05:43:07.627Z,72.00
2018-06-19T05:44:07.641Z,72.00
2018-06-19T05:45:07.659Z,76.00
2018-06-19T05:46:07.675Z,76.00
2018-06-19T05:47:07.691Z,72.00
2018-06-19T05:48:07.707Z,76.00
2018-06-19T05:49:07.725Z,76.00
2018-06-19T05:50:07.744Z,72.00
2018-06-19T05:51:07.761Z,76.00
2018-06-19T05:52:07.775Z,76.00
2018-06-19T05:53:07.793Z,76.00
2018-06-19T05:54:07.808Z,76.00
2018-06-19T05:55:07.828Z,76.00
2018-06-19T05:56:07.843Z,80.00
2018-06-19T05:57:07.859Z,76.00
2018-06-19T05:58:07.878Z,80.00
2018-06-19T05:59:07.892Z,80.00
2018-06-19T06:00:07.918Z,80.00
2018-06-19T06:01:07.932Z,84.00
2018-06-19T06:02:07.945Z,84.00
2018-06-19T06:03:07.959Z,80.00
2018-06-19T06:04:07.979Z,80.00
2018-06-19T06:05:07.997Z,80.00
2018-06-19T06:06:08.013Z,80.00
2018-06-19T06:07:08.028Z,80.00
2018-06-19T06:08:08.046Z,80.00
2018-06-19T06:09:08.066Z,84.00
2018-06-19T06:10:08.088Z,84.00
2018-06-19T06:11:08.119Z,80.00
2018-06-19T06:12:08.114Z,84.00
2018-06-19T06:13:08.132Z,84.00
2018-06-19T06:14:08.146Z,84.00
2018-06-19T06:15:08.163Z,84.00
2018-06-19T06:16:08.180Z,84.00
2018-06-19T06:17:08.199Z,88.00
2018-06-19T06:18:08.215Z,84.00
2018-06-19T06:19:08.232Z,88.00
2018-06-19T06:20:08.251Z,88.00
2018-06-19T06:21:08.268Z,88.00
2018-06-19T06:22:08.315Z,88.00
2018-06-19T06:23:08.300Z,88.00
2018-06-19T06:24:08.322Z,88.00
2018-06-19T06:25:08.340Z,88.00
2018-06-19T06:26:08.351Z,92.00
2018-06-19T06:27:08.367Z,92.00
2018-06-19T06:28:08.384Z,92.00
2018-06-19T06:29:08.404Z,92.00
2018-06-19T06:30:08.421Z,92.00
2018-06-19T06:31:08.437Z,92.00
2018-06-19T06:32:08.454Z,96.00
2018-06-19T06:33:08.470Z,92.00
2018-06-19T06:34:08.488Z,92.00
2018-06-19T06:35:08.504Z,96.00
2018-06-19T06:36:08.521Z,96.00
2018-06-19T06:37:08.616Z,96.00
2018-06-19T06:38:08.562Z,96.00
2018-06-19T06:39:08.570Z,96.00
2018-06-19T06:40:08.588Z,100.00
2018-06-19T06:41:08.603Z,96.00
2018-06-19T06:42:08.624Z,100.00
2018-06-19T06:43:08.642Z,100.00
2018-06-19T06:44:08.657Z,104.00
2018-06-19T06:45:08.672Z,104.00
2018-06-19T06:46:08.689Z,100.00
2018-06-19T06:47:08.704Z,104.00
2018-06-19T06:48:08.725Z,104.00
2018-06-19T06:49:08.740Z,104.00
2018-06-19T06:50:08.766Z,108.00
2018-06-19T06:51:08.776Z,108.00
2018-06-19T06:52:08.791Z,104.00
2018-06-19T06:53:08.818Z,108.00
2018-06-19T06:54:08.824Z,108.00
2018-06-19T06:55:08.841Z,112.00
2018-06-19T06:56:08.856Z,112.00
2018-06-19T06:57:08.873Z,108.00
2018-06-19T06:58:08.892Z,112.00
2018-06-19T06:59:08.912Z,116.00
2018-06-19T07:00:08.927Z,112.00
2018-06-19T07:01:08.975Z,116.00
2018-06-19T07:02:08.971Z,112.00
2018-06-19T07:03:08.975Z,116.00
2018-06-19T07:04:08.993Z,116.00
2018-06-19T07:05:09.011Z,116.00
2018-06-19T07:06:09.028Z,120.00
2018-06-19T07:07:09.044Z,120.00
2018-06-19T07:08:09.061Z,124.00
2018-06-19T07:09:09.079Z,120.00
2018-06-19T07:10:09.157Z,120.00
2018-06-19T07:11:09.112Z,124.00
2018-06-19T07:12:09.130Z,124.00
2018-06-19T07:13:09.148Z,124.00
2018-06-19T07:14:09.166Z,124.00
2018-06-19T07:15:09.180Z,128.00
2018-06-19T07:16:09.196Z,128.00
2018-06-19T07:17:09.216Z,128.00
2018-06-19T07:18:09.235Z,128.00
2018-06-19T07:19:09.387Z,132.00
2018-06-19T07:20:09.266Z,132.00
2018-06-19T07:21:09.284Z,132.00
2018-06-19T07:22:09.303Z,136.00
2018-06-19T07:23:09.318Z,136.00
2018-06-19T07:24:09.333Z,132.00
2018-06-19T07:25:09.356Z,136.00
2018-06-19T07:26:09.463Z,136.00
2018-06-19T07:27:09.385Z,136.00
2018-06-19T07:28:09.408Z,140.00
2018-06-19T07:29:09.420Z,144.00
2018-06-19T07:30:09.438Z,144.00
2018-06-19T07:31:09.457Z,144.00
2018-06-19T07:32:09.473Z,144.00
2018-06-19T07:33:09.494Z,144.00
2018-06-19T07:34:09.508Z,144.00
2018-06-19T07:35:09.521Z,148.00
2018-06-19T07:36:09.540Z,148.00
2018-06-19T07:37:09.558Z,152.00
2018-06-19T07:38:09.689Z,152.00
2018-06-19T07:39:09.596Z,156.00
2018-06-19T07:40:09.609Z,160.00
2018-06-19T07:41:09.629Z,156.00
2018-06-19T07:42:09.645Z,160.00
2018-06-19T07:43:09.661Z,160.00
2018-06-19T07:44:09.720Z,164.00
2018-06-19T07:45:09.699Z,164.00
2018-06-19T07:46:09.714Z,168.00
2018-06-19T07:47:09.733Z,168.00
2018-06-19T07:48:09.750Z,172.00
2018-06-19T07:49:09.769Z,168.00
2018-06-19T07:50:09.785Z,172.00
2018-06-19T07:51:09.800Z,176.00
2018-06-19T07:52:09.820Z,176.00
2018-06-19T07:53:09.835Z,180.00
2018-06-19T07:54:09.854Z,180.00
2018-06-19T07:55:09.871Z,180.00
2018-06-19T07:56:09.888Z,184.00
2018-06-19T07:57:09.906Z,184.00
2018-06-19T07:58:09.925Z,184.00
2018-06-19T07:59:09.941Z,188.00
2018-06-19T08:00:09.967Z,188.00
2018-06-19T08:01:09.978Z,192.00
2018-06-19T08:02:09.997Z,192.00
2018-06-19T08:03:10.011Z,196.00
2018-06-19T08:04:10.031Z,196.00
2018-06-19T08:05:10.049Z,200.00
2018-06-19T08:06:10.065Z,200.00
2018-06-19T08:07:10.084Z,204.00
2018-06-19T08:08:10.103Z,204.00
2018-06-19T08:09:10.119Z,208.00
2018-06-19T08:10:10.138Z,208.00
2018-06-19T08:11:10.154Z,212.00
2018-06-19T08:12:10.175Z,212.00
2018-06-19T08:13:10.192Z,216.00
2018-06-19T08:14:10.209Z,216.00
2018-06-19T08:15:10.228Z,220.00
2018-06-19T08:16:10.246Z,220.00
2018-06-19T08:17:10.262Z,224.00
2018-06-19T08:18:10.283Z,228.00
2018-06-19T08:19:10.301Z,232.00
2018-06-19T08:20:10.318Z,232.00
2018-06-19T08:21:10.335Z,232.00
2018-06-19T08:22:10.352Z,236.00
2018-06-19T08:23:10.372Z,240.00
2018-06-19T08:24:10.391Z,240.00
2018-06-19T08:25:10.408Z,244.00
2018-06-19T08:26:10.427Z,248.00
2018-06-19T08:27:10.446Z,252.00
2018-06-19T08:28:10.465Z,252.00
2018-06-19T08:29:10.482Z,256.00
2018-06-19T08:30:10.502Z,260.00
2018-06-19T08:31:10.517Z,260.00
2018-06-19T08:32:10.535Z,264.00
2018-06-19T08:33:10.555Z,264.00
2018-06-19T08:34:10.573Z,268.00
2018-06-19T08:35:10.594Z,272.00
2018-06-19T08:36:10.618Z,276.00
2018-06-19T08:37:10.630Z,276.00
2018-06-19T08:38:10.651Z,276.00
2018-06-19T08:39:10.664Z,280.00
2018-06-19T08:40:10.685Z,284.00
2018-06-19T08:41:10.703Z,284.00
2018-06-19T08:42:10.723Z,288.00
2018-06-19T08:43:10.743Z,292.00
2018-06-19T08:44:10.758Z,292.00
2018-06-19T08:45:10.777Z,300.00
2018-06-19T08:46:10.796Z,300.00
2018-06-19T08:47:10.814Z,300.00
2018-06-19T08:48:10.831Z,304.00
2018-06-19T08:49:10.853Z,308.00
2018-06-19T08:50:10.870Z,308.00
2018-06-19T08:51:10.887Z,308.00
2018-06-19T08:52:10.910Z,312.00
2018-06-19T08:53:10.926Z,316.00
2018-06-19T08:54:10.986Z,320.00
2018-06-19T08:55:10.969Z,320.00
2018-06-19T08:56:10.982Z,324.00
2018-06-19T08:57:11.000Z,324.00
2018-06-19T08:58:11.018Z,328.00
2018-06-19T08:59:11.038Z,332.00
2018-06-19T09:00:11.071Z,332.00
2018-06-19T09:01:11.076Z,336.00
2018-06-19T09:02:11.094Z,336.00
2018-06-19T09:03:11.115Z,340.00
2018-06-19T09:04:11.131Z,340.00
2018-06-19T09:05:11.153Z,344.00
2018-06-19T09:06:11.170Z,348.00
2018-06-19T09:07:11.189Z,352.00
2018-06-19T09:08:11.257Z,356.00
2018-06-19T09:09:11.228Z,352.00
2018-06-19T09:10:11.249Z,360.00
2018-06-19T09:11:11.266Z,360.00
2018-06-19T09:12:11.286Z,364.00
2018-06-19T09:13:11.305Z,368.00
2018-06-19T09:14:11.326Z,368.00
2018-06-19T09:15:11.345Z,372.00
2018-06-19T09:16:11.362Z,380.00
2018-06-19T09:17:11.385Z,380.00
2018-06-19T09:18:11.402Z,388.00
2018-06-19T09:19:11.420Z,388.00
2018-06-19T09:20:11.549Z,392.00
2018-06-19T09:21:11.462Z,396.00
2018-06-19T09:22:11.478Z,400.00
2018-06-19T09:23:11.497Z,400.00
2018-06-19T09:24:11.539Z,404.00
2018-06-19T09:25:11.538Z,408.00
2018-06-19T09:26:11.559Z,412.00
2018-06-19T09:27:11.576Z,416.00
2018-06-19T09:28:11.597Z,420.00
2018-06-19T09:29:11.616Z,420.00
2018-06-19T09:30:11.639Z,428.00
2018-06-19T09:31:11.688Z,432.00
2018-06-19T09:32:11.674Z,436.00
2018-06-19T09:33:11.696Z,440.00
2018-06-19T09:34:11.715Z,444.00
2018-06-19T09:35:11.733Z,444.00
2018-06-19T09:36:11.755Z,452.00
2018-06-19T09:37:11.773Z,456.00
2018-06-19T09:38:11.793Z,460.00
2018-06-19T09:39:11.817Z,464.00
2018-06-19T09:40:11.833Z,468.00
2018-06-19T09:41:11.852Z,472.00
2018-06-19T09:42:11.874Z,472.00
2018-06-19T09:43:11.894Z,476.00
2018-06-19T09:44:11.912Z,484.00
2018-06-19T09:45:11.934Z,488.00
2018-06-19T09:46:11.956Z,488.00
2018-06-19T09:47:11.971Z,496.00
2018-06-19T09:48:11.991Z,496.00
2018-06-19T09:49:12.011Z,504.00
2018-06-19T09:50:12.036Z,504.00
2018-06-19T09:51:12.057Z,508.00
2018-06-19T09:52:12.073Z,512.00
2018-06-19T09:53:12.091Z,516.00
2018-06-19T09:54:12.117Z,520.00
2018-06-19T09:55:12.132Z,524.00
2018-06-19T09:56:12.160Z,524.00
2018-06-19T09:57:12.173Z,524.00
2018-06-19T09:58:12.194Z,528.00
2018-06-19T09:59:12.323Z,536.00
2018-06-19T10:00:12.236Z,536.00
2018-06-19T10:01:12.255Z,540.00
2018-06-19T10:02:12.277Z,548.00
2018-06-19T10:03:12.294Z,552.00
2018-06-19T10:04:12.315Z,556.00
2018-06-19T10:05:12.337Z,560.00
2018-06-19T10:06:12.404Z,564.00
2018-06-19T10:07:12.378Z,572.00
2018-06-19T10:08:12.401Z,580.00
2018-06-19T10:09:12.421Z,584.00
2018-06-19T10:10:12.443Z,588.00
2018-06-19T10:11:12.461Z,592.00
2018-06-19T10:12:12.714Z,596.00
2018-06-19T10:13:12.504Z,600.00
2018-06-19T10:14:12.527Z,608.00
2018-06-19T10:15:12.547Z,612.00
2018-06-19T10:16:12.567Z,616.00
2018-06-19T10:17:12.588Z,624.00
2018-06-19T10:18:12.610Z,624.00
2018-06-19T10:19:12.630Z,632.00
2018-06-19T10:20:12.652Z,636.00
2018-06-19T10:21:12.673Z,640.00
2018-06-19T10:22:12.695Z,648.00
2018-06-19T10:23:12.715Z,652.00
2018-06-19T10:24:12.740Z,656.00
2018-06-19T10:25:12.758Z,660.00
2018-06-19T10:26:12.784Z,664.00
2018-06-19T10:27:12.801Z,668.00
2018-06-19T10:28:12.825Z,672.00
2018-06-19T10:29:12.846Z,676.00
2018-06-19T10:30:12.871Z,684.00
2018-06-19T10:31:12.889Z,688.00
2018-06-19T10:32:12.912Z,692.00
2018-06-19T10:33:12.932Z,696.00
2018-06-19T10:34:12.958Z,704.00
2018-06-19T10:35:12.976Z,708.00
2018-06-19T10:36:12.998Z,708.00
2018-06-19T10:37:13.019Z,716.00
2018-06-19T10:38:13.042Z,720.00
2018-06-19T10:39:13.063Z,724.00
2018-06-19T10:40:13.140Z,728.00
2018-06-19T10:41:13.109Z,732.00
2018-06-19T10:42:13.129Z,736.00
2018-06-19T10:43:13.152Z,736.00
2018-06-19T10:44:13.173Z,744.00
2018-06-19T10:45:13.196Z,748.00
2018-06-19T10:46:13.218Z,752.00
2018-06-19T10:47:13.239Z,752.00
2018-06-19T10:48:13.262Z,756.00
2018-06-19T10:49:13.285Z,764.00
2018-06-19T10:50:13.309Z,768.00
2018-06-19T10:51:13.331Z,772.00
2018-06-19T10:52:13.353Z,772.00
2018-06-19T10:53:13.375Z,776.00
2018-06-19T10:54:13.399Z,780.00
2018-06-19T10:55:13.423Z,788.00
2018-06-19T10:56:13.444Z,792.00
2018-06-19T10:57:13.467Z,792.00
2018-06-19T10:58:13.489Z,796.00
2018-06-19T10:59:13.514Z,800.00
2018-06-19T11:00:13.538Z,804.00
2018-06-19T11:01:13.559Z,808.00
2018-06-19T11:02:13.591Z,812.00
2018-06-19T11:03:13.602Z,816.00
2018-06-19T11:04:13.625Z,820.00
2018-06-19T11:05:13.703Z,824.00
2018-06-19T11:06:13.682Z,828.00
2018-06-19T11:07:13.703Z,832.00
2018-06-19T11:08:13.733Z,836.00
2018-06-19T11:09:13.741Z,840.00
2018-06-19T11:10:13.767Z,844.00
2018-06-19T11:11:13.786Z,848.00
2018-06-19T11:12:13.811Z,852.00
2018-06-19T11:13:13.832Z,852.00
2018-06-19T11:14:13.948Z,856.00
2018-06-19T11:15:13.881Z,864.00
2018-06-19T11:16:13.903Z,864.00
2018-06-19T11:17:13.931Z,868.00
2018-06-19T11:18:13.950Z,872.00
2018-06-19T11:19:13.973Z,876.00
2018-06-19T11:20:13.997Z,880.00
2018-06-19T11:21:14.020Z,880.00
2018-06-19T11:22:14.044Z,888.00
2018-06-19T11:23:14.073Z,888.00
2018-06-19T11:24:14.090Z,892.00
2018-06-19T11:25:14.116Z,892.00
2018-06-19T11:26:14.139Z,900.00
2018-06-19T11:27:14.164Z,904.00
2018-06-19T11:28:14.191Z,908.00
2018-06-19T11:29:14.208Z,904.00
2018-06-19T11:30:14.233Z,908.00
2018-06-19T11:31:14.256Z,912.00
2018-06-19T11:32:14.278Z,916.00
2018-06-19T11:33:14.303Z,920.00
2018-06-19T11:34:14.326Z,920.00
2018-06-19T11:35:14.349Z,908.00
2018-06-19T11:36:14.374Z,920.00
2018-06-19T11:37:14.397Z,920.00
2018-06-19T11:38:14.423Z,924.00
2018-06-19T11:39:14.445Z,924.00
2018-06-19T11:40:14.480Z,928.00
2018-06-19T11:41:14.493Z,936.00
2018-06-19T11:42:14.516Z,948.00
2018-06-19T11:43:14.539Z,952.00
2018-06-19T11:44:14.565Z,956.00
2018-06-19T11:45:14.590Z,960.00
2018-06-19T11:46:14.614Z,960.00
2018-06-19T11:47:14.634Z,964.00
2018-06-19T11:48:14.661Z,968.00
2018-06-19T11:49:14.776Z,972.00
2018-06-19T11:50:14.706Z,976.00
2018-06-19T11:51:14.735Z,976.00
2018-06-19T11:52:14.753Z,980.00
2018-06-19T11:53:14.778Z,952.00
2018-06-19T11:54:14.800Z,956.00
2018-06-19T11:55:14.824Z,920.00
2018-06-19T11:56:14.846Z,936.00
2018-06-19T11:57:14.872Z,932.00
2018-06-19T11:58:14.895Z,1004.00
2018-06-19T11:59:14.917Z,1008.00
2018-06-19T12:00:14.945Z,1008.00
2018-06-19T12:01:15.023Z,1012.00
2018-06-19T12:02:14.991Z,1012.00
2018-06-19T12:03:15.016Z,1016.00
2018-06-19T12:04:15.037Z,1024.00
2018-06-19T12:05:15.062Z,1024.00
2018-06-19T12:06:15.086Z,1028.00
2018-06-19T12:07:15.110Z,1032.00
2018-06-19T12:08:15.132Z,1036.00
2018-06-19T12:09:15.155Z,1040.00
2018-06-19T12:10:15.182Z,1044.00
2018-06-19T12:11:15.205Z,1040.00
2018-06-19T12:12:15.237Z,1048.00
2018-06-19T12:13:15.314Z,1052.00
2018-06-19T12:14:15.274Z,1048.00
2018-06-19T12:15:15.297Z,1060.00
2018-06-19T12:16:15.322Z,1056.00
2018-06-19T12:17:15.349Z,1064.00
2018-06-19T12:18:15.373Z,1064.00
2018-06-19T12:19:15.393Z,1068.00
2018-06-19T12:20:15.419Z,1068.00
2018-06-19T12:21:15.444Z,1072.00
2018-06-19T12:22:15.468Z,1080.00
2018-06-19T12:23:15.489Z,1076.00
2018-06-19T12:24:15.515Z,1080.00
2018-06-19T12:25:15.541Z,1080.00
2018-06-19T12:26:15.563Z,1080.00
2018-06-19T12:27:15.587Z,1084.00
2018-06-19T12:28:15.609Z,1088.00
2018-06-19T12:29:15.636Z,1092.00
2018-06-19T12:30:15.662Z,1092.00
2018-06-19T12:31:15.682Z,1096.00
2018-06-19T12:32:15.709Z,1096.00
2018-06-19T12:33:15.732Z,1100.00
2018-06-19T12:34:15.755Z,1100.00
2018-06-19T12:35:15.779Z,1100.00
2018-06-19T12:36:15.805Z,1104.00
2018-06-19T12:37:15.876Z,1104.00
2018-06-19T12:38:15.852Z,1108.00
2018-06-19T12:39:15.873Z,1108.00
2018-06-19T12:40:15.901Z,1116.00
2018-06-19T12:41:15.922Z,1112.00
2018-06-19T12:42:15.948Z,1116.00
2018-06-19T12:43:15.973Z,1116.00
2018-06-19T12:44:15.995Z,1124.00
2018-06-19T12:45:16.019Z,1124.00
2018-06-19T12:46:16.044Z,1124.00